createdAt,value
2019-04-21T00:02:05.637Z,47.90
2019-04-21T00:04:46.864Z,40.10
2019-04-21T00:07:27.721Z,44.90
2019-04-21T00:10:03.431Z,44.60
2019-04-21T00:12:24.543Z,41.28
2019-04-21T00:14:48.423Z,42.53
2019-04-21T00:17:12.992Z,39.48
2019-04-21T00:19:40.871Z,38.45
2019-04-21T00:22:26.097Z,36.10
2019-04-21T00:24:50.705Z,34.58
2019-04-21T00:27:28.320Z,35.13
2019-04-21T00:30:08.725Z,35.73
2019-04-21T00:32:25.655Z,35.40
2019-04-21T00:34:52.309Z,35.75
2019-04-21T00:37:24.190Z,33.42
2019-04-21T00:40:03.673Z,36.70
2019-04-21T00:42:37.387Z,38.85
2019-04-21T00:45:00.812Z,32.50
2019-04-21T00:47:35.872Z,35.33
2019-04-21T00:50:08.137Z,34.20
2019-04-21T00:55:27.870Z,36.25
2019-04-21T01:00:26.157Z,31.17
2019-04-21T01:05:21.262Z,35.08
2019-04-21T01:07:46.504Z,33.00
2019-04-21T01:10:14.854Z,31.37
2019-04-21T01:12:54.906Z,38.80
2019-04-21T01:15:30.639Z,31.95
2019-04-21T01:18:16.560Z,37.70
2019-04-21T01:20:22.556Z,34.60
2019-04-21T01:22:51.576Z,34.85
2019-04-21T01:25:28.198Z,33.45
2019-04-21T01:28:03.917Z,34.83
2019-04-21T01:30:39.980Z,37.58
2019-04-21T01:33:12.401Z,35.80
2019-04-21T01:35:44.081Z,38.00
2019-04-21T01:38:14.186Z,34.27
2019-04-21T01:40:47.633Z,36.10
2019-04-21T01:43:13.588Z,33.45
2019-04-21T01:45:44.766Z,35.25
2019-04-21T01:48:12.922Z,35.98
2019-04-21T01:50:41.174Z,33.30
2019-04-21T01:53:27.458Z,38.35
2019-04-21T01:55:54.443Z,32.03
2019-04-21T01:58:26.972Z,33.28
2019-04-21T02:01:00.876Z,35.05
2019-04-21T02:06:15.622Z,38.13
2019-04-21T02:08:31.341Z,35.17
2019-04-21T02:11:12.629Z,43.25
2019-04-21T02:13:46.797Z,30.95
2019-04-21T02:16:11.405Z,34.30
2019-04-21T02:18:40.272Z,33.73
2019-04-21T02:20:59.261Z,32.05
2019-04-21T02:23:46.345Z,36.80
2019-04-21T02:26:14.123Z,40.58
2019-04-21T02:28:50.297Z,35.65
2019-04-21T02:31:36.123Z,37.55
2019-04-21T02:36:35.947Z,37.48
2019-04-21T02:39:15.854Z,34.63
2019-04-21T02:41:26.524Z,33.38
2019-04-21T02:44:02.193Z,34.63
2019-04-21T02:46:31.304Z,33.53
2019-04-21T02:49:17.089Z,35.50
2019-04-21T02:51:27.799Z,35.30
2019-04-21T02:59:02.729Z,35.10
2019-04-21T03:04:19.606Z,37.35
2019-04-21T03:07:12.987Z,37.23
2019-04-21T03:14:58.176Z,36.25
2019-04-21T03:17:14.197Z,32.30
2019-04-21T03:27:52.652Z,38.33
2019-04-21T03:30:16.027Z,37.65
2019-04-21T03:33:16.360Z,37.63
2019-04-21T03:40:07.222Z,37.67
2019-04-21T03:42:42.973Z,34.25
2019-04-21T03:45:19.962Z,39.70
2019-04-21T03:52:47.791Z,37.58
2019-04-21T03:58:41.903Z,35.65
2019-04-21T04:06:08.316Z,38.55
2019-04-21T04:11:14.358Z,43.52
2019-04-21T04:13:53.430Z,41.48
2019-04-21T04:16:06.076Z,40.28
2019-04-21T04:18:53.371Z,45.23
2019-04-21T04:21:12.261Z,44.75
2019-04-21T04:23:53.440Z,43.78
2019-04-21T04:26:09.476Z,43.23
2019-04-21T04:28:47.927Z,46.35
2019-04-21T04:31:18.040Z,43.80
2019-04-21T04:33:48.795Z,43.78
2019-04-21T04:36:31.134Z,42.00
2019-04-21T04:39:09.256Z,38.17
2019-04-21T04:41:32.911Z,39.30
2019-04-21T04:44:03.148Z,40.15
2019-04-21T04:46:29.050Z,40.98
2019-04-21T04:49:08.040Z,38.70
2019-04-21T04:51:47.411Z,46.70
2019-04-21T04:54:08.594Z,39.23
2019-04-21T04:56:31.130Z,40.03
2019-04-21T05:01:32.583Z,37.93
2019-04-21T05:06:42.497Z,38.33
2019-04-21T05:09:07.813Z,40.28
2019-04-21T05:14:19.577Z,43.25
2019-04-21T05:21:34.395Z,42.03
2019-04-21T05:24:10.803Z,45.98
2019-04-21T05:26:18.971Z,40.95
2019-04-21T05:28:52.663Z,46.63
2019-04-21T05:32:04.935Z,41.90
2019-04-21T05:34:16.956Z,40.25
2019-04-21T05:37:03.983Z,39.25
2019-04-21T05:39:33.600Z,40.75
2019-04-21T05:41:55.260Z,46.02
2019-04-21T05:44:42.671Z,40.33
2019-04-21T05:47:22.028Z,42.43
2019-04-21T05:49:45.593Z,44.05
2019-04-21T05:52:08.229Z,39.83
2019-04-21T05:54:59.640Z,39.67
2019-04-21T05:57:14.674Z,43.33
2019-04-21T05:59:51.496Z,39.73
2019-04-21T06:02:22.269Z,42.98
2019-04-21T06:09:56.387Z,45.85
2019-04-21T06:12:20.902Z,43.40
2019-04-21T06:14:55.983Z,43.90
2019-04-21T06:17:30.264Z,40.92
2019-04-21T06:22:27.085Z,44.85
2019-04-21T06:30:00.214Z,41.48
2019-04-21T06:40:15.136Z,48.13
2019-04-21T06:42:32.494Z,43.70
2019-04-21T06:45:05.998Z,43.23
2019-04-21T06:47:51.371Z,41.80
2019-04-21T06:50:01.968Z,51.20
2019-04-21T06:52:52.299Z,47.80
2019-04-21T06:55:10.291Z,47.08
2019-04-21T06:57:40.271Z,46.18
2019-04-21T07:00:10.102Z,44.73
2019-04-21T07:02:49.344Z,47.17
2019-04-21T07:05:17.109Z,44.67
2019-04-21T07:07:35.554Z,45.35
2019-04-21T07:10:16.901Z,46.58
2019-04-21T07:12:41.617Z,46.35
2019-04-21T07:15:14.772Z,49.77
2019-04-21T07:17:38.761Z,50.20
2019-04-21T07:20:14.799Z,45.08
2019-04-21T07:22:46.105Z,46.85
2019-04-21T07:25:18.946Z,45.73
2019-04-21T07:27:50.733Z,40.90
2019-04-21T07:30:14.974Z,43.92
2019-04-21T07:32:51.447Z,42.15
2019-04-21T07:35:17.480Z,44.60
2019-04-21T07:37:41.368Z,41.30
2019-04-21T07:40:09.101Z,40.05
2019-04-21T07:42:39.595Z,42.83
2019-04-21T07:45:08.997Z,47.13
2019-04-21T07:47:46.403Z,39.13
2019-04-21T07:50:22.756Z,43.50
2019-04-21T07:57:45.731Z,43.68
2019-04-21T08:02:54.411Z,41.50
2019-04-21T08:05:42.406Z,41.25
2019-04-21T08:07:55.812Z,44.27
2019-04-21T08:10:22.495Z,41.73
2019-04-21T08:15:27.588Z,41.20
2019-04-21T08:17:57.101Z,37.05
2019-04-21T08:20:24.615Z,36.88
2019-04-21T08:22:59.587Z,36.93
2019-04-21T08:25:43.646Z,37.60
2019-04-21T08:27:59.876Z,37.60
2019-04-21T08:30:33.097Z,38.20
2019-04-21T08:36:07.986Z,35.70
2019-04-21T08:38:02.126Z,38.35
2019-04-21T08:40:36.634Z,34.75
2019-04-21T08:42:59.877Z,31.55
2019-04-21T08:48:04.538Z,30.43
2019-04-21T08:50:30.991Z,171.65
2019-04-21T08:53:07.046Z,33.53
2019-04-21T08:55:39.997Z,29.98
2019-04-21T08:58:14.138Z,30.68
2019-04-21T09:00:40.957Z,31.30
2019-04-21T09:03:14.205Z,32.42
2019-04-21T09:05:45.580Z,32.17
2019-04-21T09:08:20.126Z,33.70
2019-04-21T09:10:51.789Z,32.53
2019-04-21T09:13:14.890Z,31.42
2019-04-21T09:15:41.941Z,29.55
2019-04-21T09:18:17.300Z,31.90
2019-04-21T09:23:17.224Z,32.08
2019-04-21T09:25:46.806Z,34.18
2019-04-21T09:28:14.638Z,29.05
2019-04-21T09:30:33.900Z,30.45
2019-04-21T09:33:01.953Z,22.02
2019-04-21T09:35:31.571Z,27.35
2019-04-21T09:38:11.460Z,26.93
2019-04-21T09:40:37.156Z,30.02
2019-04-21T09:43:08.003Z,29.82
2019-04-21T09:45:33.206Z,32.15
2019-04-21T09:48:10.128Z,22.55
2019-04-21T09:50:37.741Z,29.92
2019-04-21T09:53:16.840Z,29.15
2019-04-21T09:55:45.254Z,34.45
2019-04-21T09:58:13.512Z,25.05
2019-04-21T10:00:46.426Z,22.13
2019-04-21T10:03:11.303Z,25.77
2019-04-21T10:05:38.402Z,25.82
2019-04-21T10:08:08.173Z,22.40
2019-04-21T10:10:38.372Z,22.02
2019-04-21T10:15:35.731Z,21.77
2019-04-21T10:18:06.374Z,23.15
2019-04-21T10:23:03.092Z,19.27
2019-04-21T10:25:32.503Z,14.20
2019-04-21T10:28:03.106Z,15.00
2019-04-21T10:30:32.959Z,11.60
2019-04-21T10:33:03.960Z,12.68
2019-04-21T10:35:32.973Z,13.53
2019-04-21T10:38:14.612Z,13.20
2019-04-21T10:40:33.975Z,15.08
2019-04-21T10:43:02.329Z,14.05
2019-04-21T10:45:31.049Z,11.33
2019-04-21T10:48:00.951Z,13.90
2019-04-21T10:50:29.602Z,15.48
2019-04-21T10:53:09.206Z,17.27
2019-04-21T10:55:55.919Z,12.10
2019-04-21T10:58:13.995Z,11.75
2019-04-21T11:00:44.482Z,15.93
2019-04-21T11:03:31.077Z,10.63
2019-04-21T11:06:03.106Z,12.85
2019-04-21T11:08:37.547Z,11.80
2019-04-21T11:11:03.767Z,15.45
2019-04-21T11:13:32.655Z,14.73
2019-04-21T11:16:01.679Z,12.03
2019-04-21T11:18:31.528Z,13.38
2019-04-21T11:21:00.853Z,15.28
2019-04-21T11:23:29.634Z,13.38
2019-04-21T11:25:58.322Z,14.40
2019-04-21T11:28:27.290Z,12.10
2019-04-21T11:30:57.162Z,15.78
2019-04-21T11:33:27.129Z,14.85
2019-04-21T11:35:57.317Z,12.65
2019-04-21T11:38:58.489Z,12.13
2019-04-21T11:41:16.059Z,14.47
2019-04-21T11:43:45.382Z,13.53
2019-04-21T11:46:14.047Z,12.70
2019-04-21T11:48:44.020Z,13.10
2019-04-21T11:51:13.586Z,12.55
2019-04-21T11:53:43.123Z,11.83
2019-04-21T11:56:12.570Z,12.50
2019-04-21T11:58:41.567Z,10.38
2019-04-21T12:01:11.693Z,11.20
2019-04-21T12:03:59.967Z,11.43
2019-04-21T12:06:32.220Z,13.28
2019-04-21T12:09:01.229Z,12.73
2019-04-21T12:11:29.640Z,13.75
2019-04-21T12:13:58.553Z,14.45
2019-04-21T12:16:28.676Z,13.70
2019-04-21T12:18:58.817Z,13.35
2019-04-21T12:21:32.030Z,13.75
2019-04-21T12:23:58.585Z,13.75
2019-04-21T12:26:28.334Z,22.73
2019-04-21T12:28:57.651Z,13.97
2019-04-21T12:31:37.371Z,17.17
2019-04-21T12:34:07.931Z,16.45
2019-04-21T12:36:37.943Z,12.95
2019-04-21T12:39:10.431Z,12.28
2019-04-21T12:41:40.430Z,12.43
2019-04-21T12:44:09.181Z,15.90
2019-04-21T12:46:38.163Z,13.32
2019-04-21T12:49:07.644Z,13.20
2019-04-21T12:51:37.674Z,11.33
2019-04-21T12:54:07.977Z,18.32
2019-04-21T12:56:37.940Z,12.82
2019-04-21T12:59:08.038Z,11.85
2019-04-21T13:01:37.050Z,11.33
2019-04-21T13:04:06.059Z,11.18
2019-04-21T13:06:34.735Z,11.45
2019-04-21T13:09:09.359Z,11.43
2019-04-21T13:11:37.129Z,14.03
2019-04-21T13:14:06.182Z,11.88
2019-04-21T13:16:34.805Z,14.00
2019-04-21T13:19:04.994Z,11.15
2019-04-21T13:21:34.182Z,12.95
2019-04-21T13:24:03.131Z,12.33
2019-04-21T13:26:39.466Z,13.53
2019-04-21T13:29:02.683Z,11.05
2019-04-21T13:31:32.070Z,14.25
2019-04-21T13:34:02.182Z,11.28
2019-04-21T13:36:31.788Z,17.80
2019-04-21T13:42:02.765Z,12.70
2019-04-21T13:44:23.434Z,11.28
2019-04-21T13:46:52.520Z,14.63
2019-04-21T13:49:21.303Z,13.28
2019-04-21T13:51:50.171Z,11.05
2019-04-21T13:54:19.855Z,11.73
2019-04-21T13:56:50.285Z,11.53
2019-04-21T13:59:20.116Z,9.78
2019-04-21T14:01:49.770Z,12.93
2019-04-21T14:04:19.722Z,11.12
2019-04-21T14:06:48.366Z,10.80
2019-04-21T14:09:17.712Z,11.03
2019-04-21T14:11:47.446Z,13.25
2019-04-21T14:14:16.608Z,9.57
2019-04-21T14:16:45.761Z,11.33
2019-04-21T14:19:15.344Z,10.63
2019-04-21T14:21:47.447Z,9.55
2019-04-21T14:26:44.562Z,126.30
2019-04-21T14:29:13.478Z,19.20
2019-04-21T14:31:44.241Z,10.78
2019-04-21T14:34:14.334Z,12.60
2019-04-21T14:36:44.451Z,10.18
2019-04-21T14:39:14.675Z,10.45
2019-04-21T14:41:44.281Z,12.18
2019-04-21T14:44:13.234Z,13.20
2019-04-21T14:46:47.059Z,12.25
2019-04-21T14:49:33.155Z,10.68
2019-04-21T14:52:03.587Z,12.50
2019-04-21T14:54:33.946Z,13.83
2019-04-21T14:57:03.244Z,12.82
2019-04-21T14:59:33.248Z,10.85
2019-04-21T15:02:02.227Z,11.57
2019-04-21T15:04:31.570Z,9.88
2019-04-21T15:07:01.367Z,11.68
2019-04-21T15:09:31.510Z,15.47
2019-04-21T15:12:02.389Z,10.70
2019-04-21T15:14:31.885Z,16.23
2019-04-21T15:17:01.002Z,14.53
2019-04-21T15:19:30.847Z,9.73
2019-04-21T15:22:00.600Z,12.23
2019-04-21T15:24:30.137Z,8.93
2019-04-21T15:26:59.304Z,11.88
2019-04-21T15:29:28.960Z,11.28
2019-04-21T15:31:58.824Z,13.17
2019-04-21T15:34:27.739Z,10.10
2019-04-21T15:36:57.800Z,11.15
2019-04-21T15:39:27.921Z,9.70
2019-04-21T15:41:56.967Z,10.60
2019-04-21T15:44:26.963Z,11.73
2019-04-21T15:46:56.179Z,10.50
2019-04-21T15:49:38.607Z,11.18
2019-04-21T15:51:58.131Z,12.40
2019-04-21T15:54:28.815Z,11.55
2019-04-21T15:57:00.643Z,12.00
2019-04-21T15:59:44.303Z,11.20
2019-04-21T16:02:32.766Z,12.00
2019-04-21T16:05:01.528Z,10.55
2019-04-21T16:07:30.166Z,17.52
2019-04-21T16:09:59.822Z,12.80
2019-04-21T16:12:29.708Z,10.30
2019-04-21T16:14:58.801Z,9.63
2019-04-21T16:17:27.619Z,9.90
2019-04-21T16:19:56.506Z,9.10
2019-04-21T16:22:26.440Z,8.48
2019-04-21T16:24:56.883Z,9.80
2019-04-21T16:27:25.854Z,13.80
2019-04-21T16:29:54.518Z,10.35
2019-04-21T16:32:24.015Z,9.43
2019-04-21T16:34:57.959Z,8.80
2019-04-21T16:37:23.533Z,12.20
2019-04-21T16:39:53.678Z,10.38
2019-04-21T16:42:22.724Z,10.48
2019-04-21T16:44:52.684Z,10.75
2019-04-21T16:47:21.570Z,13.22
2019-04-21T16:49:50.210Z,8.83
2019-04-21T16:52:24.004Z,10.58
2019-04-21T16:54:55.802Z,11.00
2019-04-21T16:57:27.924Z,11.05
2019-04-21T16:59:58.393Z,11.12
2019-04-21T17:02:28.386Z,10.10
2019-04-21T17:04:58.157Z,9.15
2019-04-21T17:07:28.175Z,9.77
2019-04-21T17:09:56.909Z,12.95
2019-04-21T17:12:26.780Z,11.28
2019-04-21T17:15:10.395Z,13.13
2019-04-21T17:17:49.770Z,10.80
2019-04-21T17:20:11.643Z,10.45
2019-04-21T17:22:27.997Z,15.08
2019-04-21T17:24:58.136Z,10.20
2019-04-21T17:27:27.198Z,13.08
2019-04-21T17:29:56.743Z,10.35
2019-04-21T17:32:33.676Z,9.63
2019-04-21T17:34:58.098Z,9.20
2019-04-21T17:37:29.208Z,8.38
2019-04-21T17:39:59.099Z,10.65
2019-04-21T17:42:38.991Z,9.28
2019-04-21T17:44:59.367Z,10.53
2019-04-21T17:47:41.581Z,9.23
2019-04-21T17:50:09.471Z,11.03
2019-04-21T17:53:03.224Z,10.45
2019-04-21T17:55:33.778Z,8.15
2019-04-21T17:58:16.013Z,14.63
2019-04-21T18:03:31.206Z,7.83
2019-04-21T18:05:52.749Z,9.30
2019-04-21T18:08:23.419Z,10.68
2019-04-21T18:10:48.020Z,10.32
2019-04-21T18:13:11.603Z,8.50
2019-04-21T18:18:05.177Z,8.75
2019-04-21T18:20:37.738Z,8.95
2019-04-21T18:23:38.215Z,8.45
2019-04-21T18:26:03.876Z,14.38
2019-04-21T18:28:28.436Z,11.05
2019-04-21T18:31:14.661Z,12.15
2019-04-21T18:34:04.627Z,10.53
2019-04-21T18:36:34.930Z,12.45
2019-04-21T18:39:19.755Z,12.05
2019-04-21T18:42:28.226Z,12.23
2019-04-21T18:45:20.712Z,11.70
2019-04-21T18:47:31.575Z,10.10
2019-04-21T18:49:50.334Z,10.93
2019-04-21T18:52:32.177Z,16.65
2019-04-21T18:55:06.318Z,11.35
2019-04-21T18:57:32.441Z,11.10
2019-04-21T18:59:53.269Z,13.48
2019-04-21T19:02:24.321Z,8.60
2019-04-21T19:04:55.832Z,9.98
2019-04-21T19:07:37.470Z,12.58
2019-04-21T19:13:09.222Z,12.20
2019-04-21T19:15:10.734Z,11.88
2019-04-21T19:22:42.716Z,17.15
2019-04-21T19:25:16.731Z,15.58
2019-04-21T19:27:43.712Z,25.55
2019-04-21T19:30:24.892Z,29.10
2019-04-21T19:32:38.997Z,55.05
2019-04-21T19:34:59.949Z,60.65
2019-04-21T19:37:28.879Z,89.32
2019-04-21T19:40:07.772Z,59.27
2019-04-21T19:42:38.262Z,46.50
2019-04-21T19:45:15.001Z,43.60
2019-04-21T19:47:48.721Z,51.08
2019-04-21T19:50:15.865Z,57.70
2019-04-21T19:52:39.864Z,59.08
2019-04-21T19:55:00.618Z,56.15
2019-04-21T19:57:31.191Z,78.37
2019-04-21T20:00:03.670Z,69.22
2019-04-21T20:02:30.495Z,85.17
2019-04-21T20:05:04.966Z,109.40
2019-04-21T20:07:43.836Z,95.25
2019-04-21T20:10:24.034Z,71.72
2019-04-21T20:12:45.294Z,50.55
2019-04-21T20:15:26.192Z,35.63
2019-04-21T20:17:48.313Z,26.55
2019-04-21T20:20:03.790Z,27.22
2019-04-21T20:22:36.817Z,27.20
2019-04-21T20:25:08.234Z,23.62
2019-04-21T20:27:44.376Z,22.00
2019-04-21T20:30:21.885Z,20.02
2019-04-21T20:33:18.102Z,21.35
2019-04-21T20:35:34.219Z,26.30
2019-04-21T20:37:47.833Z,22.77
2019-04-21T20:40:19.675Z,23.77
2019-04-21T20:43:07.402Z,21.95
2019-04-21T20:45:51.012Z,17.85
2019-04-21T20:47:48.802Z,20.95
2019-04-21T20:50:59.334Z,21.17
2019-04-21T20:53:24.942Z,28.15
2019-04-21T20:55:48.554Z,28.60
2019-04-21T20:58:23.689Z,26.52
2019-04-21T21:01:06.368Z,30.00
2019-04-21T21:03:24.802Z,28.98
2019-04-21T21:05:49.397Z,33.25
2019-04-21T21:08:31.427Z,30.72
2019-04-21T21:10:53.315Z,30.95
2019-04-21T21:16:10.148Z,27.87
2019-04-21T21:21:00.343Z,29.45
2019-04-21T21:23:20.425Z,32.73
2019-04-21T21:25:59.305Z,27.90
2019-04-21T21:28:24.593Z,38.25
2019-04-21T21:30:52.836Z,35.88
2019-04-21T21:33:22.540Z,34.75
2019-04-21T21:36:02.866Z,39.30
2019-04-21T21:38:31.170Z,36.20
2019-04-21T21:40:54.645Z,44.42
2019-04-21T21:43:17.551Z,48.33
2019-04-21T21:45:51.277Z,49.05
2019-04-21T21:48:28.959Z,50.48
2019-04-21T21:50:53.932Z,54.42
2019-04-21T21:53:19.271Z,49.50
2019-04-21T21:55:44.694Z,53.28
2019-04-21T21:58:14.258Z,50.40
2019-04-21T22:00:49.810Z,50.55
2019-04-21T22:03:24.490Z,57.53
2019-04-21T22:05:53.476Z,56.73
2019-04-21T22:08:16.394Z,50.92
2019-04-21T22:10:45.399Z,56.15
2019-04-21T22:13:18.028Z,50.17
2019-04-21T22:15:49.411Z,58.17
2019-04-21T22:18:34.989Z,54.08
2019-04-21T22:21:02.299Z,56.63
2019-04-21T22:23:30.479Z,62.65
2019-04-21T22:25:47.536Z,56.13
2019-04-21T22:28:17.714Z,60.78
2019-04-21T22:30:51.138Z,60.88
2019-04-21T22:33:20.972Z,56.35
2019-04-21T22:35:54.292Z,58.55
2019-04-21T22:38:37.343Z,62.50
2019-04-21T22:41:00.274Z,59.33
2019-04-21T22:43:26.583Z,61.05
2019-04-21T22:45:49.579Z,60.10
2019-04-21T22:48:21.571Z,58.87
2019-04-21T22:50:48.621Z,54.88
2019-04-21T22:53:17.925Z,56.10
2019-04-21T22:55:49.505Z,58.08
2019-04-21T22:58:28.283Z,54.70
2019-04-21T23:00:54.639Z,57.13
2019-04-21T23:03:22.902Z,53.95
2019-04-21T23:05:51.866Z,57.83
2019-04-21T23:08:26.644Z,53.42
2019-04-21T23:10:57.871Z,52.85
2019-04-21T23:13:23.482Z,54.70
2019-04-21T23:15:56.813Z,62.25
2019-04-21T23:18:36.047Z,59.95
2019-04-21T23:21:08.841Z,56.10
2019-04-21T23:23:44.324Z,53.85
2019-04-21T23:26:14.408Z,52.78
2019-04-21T23:28:48.076Z,52.00
2019-04-21T23:31:11.173Z,49.95
2019-04-21T23:33:25.729Z,55.20
2019-04-21T23:36:05.199Z,49.58
2019-04-21T23:38:30.238Z,48.13
2019-04-21T23:40:59.973Z,42.93
2019-04-21T23:43:28.191Z,45.15
2019-04-21T23:45:57.272Z,46.88
2019-04-21T23:48:36.561Z,41.98
2019-04-21T23:51:10.932Z,44.00
2019-04-21T23:53:26.655Z,44.42
2019-04-21T23:55:55.430Z,43.50
2019-04-21T23:58:28.137Z,45.60
